Aérodrome :
LOGIN :

S'inscrire | Disclaimer

   EN    FR    IT 

 










Légende :    VFR   VFR Marginal   IFR   IFR Intensif   IFR Très Intensif
Visi : 
Plafond : 
>= 8 km
>= 3000ft
5 à 8 km
1000 à 3000 ft
1500m à 5 km
500 à 1000 ft
800 à 1500m
200 à 500 ft
< 800m
< 200 ft
Symboles :   Orages  Brouillard  Fortes neiges  Fortes précipitations  Vent > 20 kt
SIGMETs :   Divers  Orages  Givrage  Turbulence  Onde Orograph.  Cendres Volcan.






- Altitude de l'aérodrome : 124 ft
- Code IATA : RNS


LFRN - Rennes

DERNIER METAR :
  • 170300Z AUTO 24008KT 9999 SCT021 BKN028 OVC056 11/09 Q1007 TEMPO 4000 SHRA BKN013

METARs EXPIRÉS :
  • 170230Z AUTO 24008KT 220V280 9999 FEW011 BKN017 OVC024 11/09 Q1007 TEMPO 4000 SHRA BKN013
  • 170200Z AUTO 24009KT 210V280 9999 SCT017 BKN029 OVC038 11/09 Q1007 TEMPO 4000 SHRA BKN013
  • 170130Z AUTO 24009KT 9999 FEW020 SCT027 OVC034 11/09 Q1007 TEMPO 4000 SHRA BKN013
  • 170100Z AUTO 25011KT 9999 BKN021 BKN026 BKN032 11/09 Q1006 TEMPO 4000 SHRA BKN013
  • 170030Z AUTO 24011KT 9999 BKN022 BKN033 BKN046 11/09 Q1006 TEMPO 4000 SHRA BKN013

TAF TAF LFRN
Valide du 17 à 00h jusqu'au 18 à 00h UTC


162300Z 1700/1724 26010KT 9999 SCT025
PROB30
TEMPO 1700/1709 4000 SHRA BKN013
TEMPO 1709/1720 4000 SHRA SCT035CB
PROB40
TEMPO 1713/1718 26015G30KT 2500 TSRA BKN035CB
BECMG 1720/1722 26005KT
ATIS : +33 2 99 67 72 50



MET'MAP, la Météo Aéronautique d'un coup d'oeil ! - Copyright ORBIFLY Décembre 2007 - Disclaimer

ORBIFLY MET'MAP TEAM :

Programmation & Développement : Alexandra Zaïnal
Sur une idée originale de : Baudouin d'Aumeries
Assistance à la programmation : Marc-Olivier Méhu
Soutien technique & logistique : Manuel Goepfert

Contact : metmap@orbifly.com




SOURCES & CREDITS :

   NOAA